sensor_id;sensor_type;location;lat;lon;timestamp;pressure;altitude;pressure_sealevel;temperature;humidity
74169;BME280;62523;53.336;83.690;2023-07-20T00:03:36;98018.84;;;22.12;97.06
74169;BME280;62523;53.336;83.690;2023-07-20T00:08:37;98021.41;;;23.87;81.85
74169;BME280;62523;53.336;83.690;2023-07-20T00:13:39;98009.47;;;24.30;75.59
74169;BME280;62523;53.336;83.690;2023-07-20T00:18:41;97990.66;;;24.70;73.86
74169;BME280;62523;53.336;83.690;2023-07-20T00:23:42;97980.91;;;22.36;85.96
74169;BME280;62523;53.336;83.690;2023-07-20T00:28:44;97993.16;;;21.81;93.59
74169;BME280;62523;53.336;83.690;2023-07-20T00:33:46;97998.50;;;21.81;94.08
74169;BME280;62523;53.336;83.690;2023-07-20T00:38:48;97998.16;;;21.47;97.26
74169;BME280;62523;53.336;83.690;2023-07-20T00:43:51;97995.75;;;21.23;99.82
74169;BME280;62523;53.336;83.690;2023-07-20T00:48:53;97986.88;;;21.22;99.98
74169;BME280;62523;53.336;83.690;2023-07-20T00:53:55;98006.56;;;22.02;95.20
74169;BME280;62523;53.336;83.690;2023-07-20T00:58:57;98008.94;;;23.66;81.41
74169;BME280;62523;53.336;83.690;2023-07-20T01:03:59;98015.59;;;23.36;81.96
74169;BME280;62523;53.336;83.690;2023-07-20T01:14:29;98006.22;;;23.18;84.44
74169;BME280;62523;53.336;83.690;2023-07-20T01:19:31;98009.78;;;25.33;71.94
74169;BME280;62523;53.336;83.690;2023-07-20T01:30:15;98032.38;;;23.86;79.33
74169;BME280;62523;53.336;83.690;2023-07-20T01:35:19;98029.44;;;23.81;80.75
74169;BME280;62523;53.336;83.690;2023-07-20T01:40:22;98034.47;;;24.04;80.70
74169;BME280;62523;53.336;83.690;2023-07-20T01:45:27;98046.09;;;23.56;83.06
74169;BME280;62523;53.336;83.690;2023-07-20T01:50:29;98056.38;;;23.04;85.33
74169;BME280;62523;53.336;83.690;2023-07-20T01:55:30;98068.25;;;22.45;90.65
74169;BME280;62523;53.336;83.690;2023-07-20T02:00:32;98058.09;;;22.62;90.09
74169;BME280;62523;53.336;83.690;2023-07-20T02:05:33;98053.78;;;22.40;92.70
74169;BME280;62523;53.336;83.690;2023-07-20T02:10:35;98059.03;;;22.76;91.77
74169;BME280;62523;53.336;83.690;2023-07-20T02:15:37;98062.88;;;22.67;94.75
74169;BME280;62523;53.336;83.690;2023-07-20T02:20:41;98058.97;;;23.26;92.68
74169;BME280;62523;53.336;83.690;2023-07-20T02:25:42;98047.94;;;23.14;94.21
74169;BME280;62523;53.336;83.690;2023-07-20T02:30:45;98048.63;;;23.64;89.00
74169;BME280;62523;53.336;83.690;2023-07-20T02:35:47;98044.28;;;23.22;91.51
74169;BME280;62523;53.336;83.690;2023-07-20T02:40:49;98037.56;;;23.94;83.88
74169;BME280;62523;53.336;83.690;2023-07-20T02:45:50;98028.25;;;23.90;83.25
74169;BME280;62523;53.336;83.690;2023-07-20T02:50:52;98016.47;;;23.98;82.34
74169;BME280;62523;53.336;83.690;2023-07-20T02:55:54;98026.66;;;23.54;84.78
74169;BME280;62523;53.336;83.690;2023-07-20T03:00:55;98019.25;;;23.63;85.59
74169;BME280;62523;53.336;83.690;2023-07-20T03:05:57;97998.31;;;23.51;88.47
74169;BME280;62523;53.336;83.690;2023-07-20T03:11:00;97956.50;;;23.36;91.41
74169;BME280;62523;53.336;83.690;2023-07-20T03:16:04;97966.53;;;23.14;96.34
74169;BME280;62523;53.336;83.690;2023-07-20T03:21:08;97932.34;;;22.59;100.00
74169;BME280;62523;53.336;83.690;2023-07-20T03:26:12;97945.53;;;22.26;100.00
74169;BME280;62523;53.336;83.690;2023-07-20T03:31:14;97997.41;;;22.33;100.00
74169;BME280;62523;53.336;83.690;2023-07-20T03:36:16;98013.53;;;22.18;100.00
74169;BME280;62523;53.336;83.690;2023-07-20T03:41:18;98012.19;;;22.51;100.00
74169;BME280;62523;53.336;83.690;2023-07-20T03:46:21;98015.19;;;22.41;100.00
74169;BME280;62523;53.336;83.690;2023-07-20T03:51:22;98020.81;;;22.46;100.00
74169;BME280;62523;53.336;83.690;2023-07-20T03:56:24;98021.66;;;22.46;100.00
74169;BME280;62523;53.336;83.690;2023-07-20T04:01:25;98017.25;;;22.67;100.00
74169;BME280;62523;53.336;83.690;2023-07-20T04:06:27;98013.06;;;22.58;100.00
74169;BME280;62523;53.336;83.690;2023-07-20T04:11:28;98011.72;;;22.75;100.00
74169;BME280;62523;53.336;83.690;2023-07-20T04:16:30;98022.28;;;22.77;100.00
74169;BME280;62523;53.336;83.690;2023-07-20T04:21:31;98031.97;;;22.78;100.00
74169;BME280;62523;53.336;83.690;2023-07-20T04:26:33;98037.63;;;22.33;100.00
74169;BME280;62523;53.336;83.690;2023-07-20T04:31:35;98050.47;;;22.38;100.00
74169;BME280;62523;53.336;83.690;2023-07-20T04:36:38;98079.78;;;22.39;100.00
74169;BME280;62523;53.336;83.690;2023-07-20T04:41:40;98104.13;;;22.38;100.00
74169;BME280;62523;53.336;83.690;2023-07-20T04:46:42;98128.97;;;22.25;100.00
74169;BME280;62523;53.336;83.690;2023-07-20T04:51:43;98135.16;;;22.11;100.00
74169;BME280;62523;53.336;83.690;2023-07-20T04:56:46;98138.16;;;22.01;100.00
74169;BME280;62523;53.336;83.690;2023-07-20T05:01:48;98133.47;;;21.88;100.00
74169;BME280;62523;53.336;83.690;2023-07-20T05:06:51;98129.31;;;21.85;100.00
74169;BME280;62523;53.336;83.690;2023-07-20T05:11:52;98132.28;;;22.27;100.00
74169;BME280;62523;53.336;83.690;2023-07-20T05:16:54;98147.22;;;22.36;100.00
74169;BME280;62523;53.336;83.690;2023-07-20T05:21:55;98176.25;;;22.47;100.00
74169;BME280;62523;53.336;83.690;2023-07-20T05:26:58;98204.88;;;22.62;100.00
74169;BME280;62523;53.336;83.690;2023-07-20T05:32:00;98197.28;;;22.87;100.00
74169;BME280;62523;53.336;83.690;2023-07-20T05:37:01;98192.41;;;22.76;100.00
74169;BME280;62523;53.336;83.690;2023-07-20T05:42:03;98203.25;;;22.82;100.00
74169;BME280;62523;53.336;83.690;2023-07-20T05:47:05;98206.63;;;22.91;100.00
74169;BME280;62523;53.336;83.690;2023-07-20T05:52:06;98209.16;;;22.99;100.00
74169;BME280;62523;53.336;83.690;2023-07-20T05:57:08;98212.19;;;22.68;100.00
74169;BME280;62523;53.336;83.690;2023-07-20T06:02:11;98218.56;;;23.10;100.00
74169;BME280;62523;53.336;83.690;2023-07-20T06:07:13;98229.50;;;23.30;100.00
74169;BME280;62523;53.336;83.690;2023-07-20T06:12:14;98237.31;;;23.03;100.00
74169;BME280;62523;53.336;83.690;2023-07-20T06:17:16;98240.72;;;23.40;100.00
74169;BME280;62523;53.336;83.690;2023-07-20T06:22:18;98242.59;;;23.68;100.00
74169;BME280;62523;53.336;83.690;2023-07-20T06:27:19;98235.47;;;23.82;100.00
74169;BME280;62523;53.336;83.690;2023-07-20T06:32:21;98252.97;;;23.71;100.00
74169;BME280;62523;53.336;83.690;2023-07-20T06:37:22;98260.50;;;23.54;100.00
74169;BME280;62523;53.336;83.690;2023-07-20T06:42:24;98271.38;;;23.46;100.00
74169;BME280;62523;53.336;83.690;2023-07-20T06:47:25;98275.47;;;23.42;100.00
74169;BME280;62523;53.336;83.690;2023-07-20T06:52:27;98276.88;;;23.38;100.00
74169;BME280;62523;53.336;83.690;2023-07-20T06:57:28;98283.75;;;23.19;100.00
74169;BME280;62523;53.336;83.690;2023-07-20T07:02:30;98278.38;;;23.19;100.00
74169;BME280;62523;53.336;83.690;2023-07-20T07:07:31;98279.34;;;23.33;100.00
74169;BME280;62523;53.336;83.690;2023-07-20T07:12:33;98277.53;;;23.40;100.00
74169;BME280;62523;53.336;83.690;2023-07-20T07:17:35;98282.78;;;23.48;100.00
74169;BME280;62523;53.336;83.690;2023-07-20T07:22:37;98283.72;;;23.40;100.00
74169;BME280;62523;53.336;83.690;2023-07-20T07:27:38;98282.91;;;23.40;100.00
74169;BME280;62523;53.336;83.690;2023-07-20T07:32:40;98279.34;;;23.11;100.00
74169;BME280;62523;53.336;83.690;2023-07-20T07:37:41;98281.28;;;23.17;100.00
74169;BME280;62523;53.336;83.690;2023-07-20T07:42:43;98246.19;;;23.47;100.00
74169;BME280;62523;53.336;83.690;2023-07-20T07:47:45;98245.44;;;23.60;100.00
74169;BME280;62523;53.336;83.690;2023-07-20T07:52:46;98232.84;;;23.60;100.00
74169;BME280;62523;53.336;83.690;2023-07-20T07:57:48;98210.59;;;22.95;100.00
74169;BME280;62523;53.336;83.690;2023-07-20T08:02:50;98209.56;;;22.96;100.00
74169;BME280;62523;53.336;83.690;2023-07-20T08:07:52;98210.50;;;23.10;100.00
74169;BME280;62523;53.336;83.690;2023-07-20T08:12:54;98216.53;;;23.12;100.00
74169;BME280;62523;53.336;83.690;2023-07-20T08:17:55;98207.91;;;23.17;100.00
74169;BME280;62523;53.336;83.690;2023-07-20T08:22:58;98209.50;;;22.89;100.00
74169;BME280;62523;53.336;83.690;2023-07-20T08:28:00;98213.16;;;23.03;100.00
74169;BME280;62523;53.336;83.690;2023-07-20T08:33:03;98203.72;;;22.93;100.00
74169;BME280;62523;53.336;83.690;2023-07-20T08:38:04;98193.75;;;22.86;100.00
74169;BME280;62523;53.336;83.690;2023-07-20T08:43:06;98200.72;;;23.24;100.00
74169;BME280;62523;53.336;83.690;2023-07-20T08:48:08;98184.00;;;23.57;100.00
74169;BME280;62523;53.336;83.690;2023-07-20T08:53:12;98177.41;;;23.59;100.00
74169;BME280;62523;53.336;83.690;2023-07-20T08:58:15;98168.47;;;23.87;100.00
74169;BME280;62523;53.336;83.690;2023-07-20T09:03:17;98164.53;;;23.83;100.00
74169;BME280;62523;53.336;83.690;2023-07-20T09:08:19;98175.41;;;24.03;100.00
74169;BME280;62523;53.336;83.690;2023-07-20T09:13:21;98166.66;;;23.94;100.00
74169;BME280;62523;53.336;83.690;2023-07-20T09:18:32;98168.97;;;24.59;95.37
74169;BME280;62523;53.336;83.690;2023-07-20T09:23:35;98176.78;;;24.47;95.85
74169;BME280;62523;53.336;83.690;2023-07-20T09:28:52;98158.00;;;24.73;95.36
74169;BME280;62523;53.336;83.690;2023-07-20T09:33:55;98156.38;;;24.11;97.97
74169;BME280;62523;53.336;83.690;2023-07-20T09:38:58;98136.88;;;24.84;94.11
74169;BME280;62523;53.336;83.690;2023-07-20T09:44:00;98161.97;;;25.24;92.06
74169;BME280;62523;53.336;83.690;2023-07-20T09:49:02;98149.09;;;24.86;94.48
74169;BME280;62523;53.336;83.690;2023-07-20T09:54:10;98129.00;;;25.16;89.26
74169;BME280;62523;53.336;83.690;2023-07-20T09:59:12;98141.03;;;25.13;90.10
74169;BME280;62523;53.336;83.690;2023-07-20T10:04:14;98118.63;;;25.32;89.32
74169;BME280;62523;53.336;83.690;2023-07-20T10:09:18;98131.69;;;25.09;92.36
74169;BME280;62523;53.336;83.690;2023-07-20T10:14:21;98135.63;;;25.13;91.50
74169;BME280;62523;53.336;83.690;2023-07-20T10:19:47;98125.47;;;25.35;89.37
74169;BME280;62523;53.336;83.690;2023-07-20T10:24:50;98115.88;;;25.59;87.13
74169;BME280;62523;53.336;83.690;2023-07-20T10:29:55;98125.25;;;25.17;89.94
74169;BME280;62523;53.336;83.690;2023-07-20T10:34:58;98127.34;;;24.94;94.13
74169;BME280;62523;53.336;83.690;2023-07-20T10:45:51;98138.75;;;24.83;97.43
74169;BME280;62523;53.336;83.690;2023-07-20T10:51:12;98142.06;;;24.59;98.37
74169;BME280;62523;53.336;83.690;2023-07-20T10:56:22;98159.41;;;24.56;100.00
74169;BME280;62523;53.336;83.690;2023-07-20T11:01:29;98149.50;;;24.70;99.29
74169;BME280;62523;53.336;83.690;2023-07-20T11:06:32;98138.13;;;25.14;96.66
74169;BME280;62523;53.336;83.690;2023-07-20T11:11:35;98141.00;;;25.46;94.71
74169;BME280;62523;53.336;83.690;2023-07-20T11:16:42;98156.16;;;25.07;97.53
74169;BME280;62523;53.336;83.690;2023-07-20T11:21:51;98137.19;;;25.74;92.21
74169;BME280;62523;53.336;83.690;2023-07-20T11:26:54;98136.53;;;25.79;91.58
74169;BME280;62523;53.336;83.690;2023-07-20T11:31:56;98130.81;;;25.48;96.99
74169;BME280;62523;53.336;83.690;2023-07-20T11:36:58;98150.75;;;25.01;100.00
74169;BME280;62523;53.336;83.690;2023-07-20T11:42:00;98147.03;;;25.15;100.00
74169;BME280;62523;53.336;83.690;2023-07-20T11:52:06;98153.66;;;24.99;99.37
74169;BME280;62523;53.336;83.690;2023-07-20T11:57:19;98139.84;;;25.81;92.58
74169;BME280;62523;53.336;83.690;2023-07-20T12:02:20;98137.06;;;25.16;98.15
74169;BME280;62523;53.336;83.690;2023-07-20T12:07:23;98130.47;;;24.91;100.00
74169;BME280;62523;53.336;83.690;2023-07-20T12:12:25;98117.34;;;25.48;99.35
74169;BME280;62523;53.336;83.690;2023-07-20T12:17:27;98113.81;;;25.54;98.06
74169;BME280;62523;53.336;83.690;2023-07-20T12:22:28;98114.84;;;25.53;98.91
74169;BME280;62523;53.336;83.690;2023-07-20T12:27:30;98099.38;;;25.87;96.51
74169;BME280;62523;53.336;83.690;2023-07-20T12:32:32;98092.81;;;25.63;99.31
74169;BME280;62523;53.336;83.690;2023-07-20T12:37:34;98110.91;;;25.56;97.52
74169;BME280;62523;53.336;83.690;2023-07-20T12:42:35;98120.25;;;25.53;98.45
74169;BME280;62523;53.336;83.690;2023-07-20T12:47:37;98132.72;;;25.34;98.97
74169;BME280;62523;53.336;83.690;2023-07-20T12:52:39;98149.22;;;24.45;100.00
74169;BME280;62523;53.336;83.690;2023-07-20T12:57:41;98147.78;;;24.42;100.00
74169;BME280;62523;53.336;83.690;2023-07-20T13:02:43;98160.16;;;24.37;100.00
74169;BME280;62523;53.336;83.690;2023-07-20T13:07:45;98169.25;;;24.22;100.00
74169;BME280;62523;53.336;83.690;2023-07-20T13:12:47;98164.41;;;24.04;100.00
74169;BME280;62523;53.336;83.690;2023-07-20T13:17:49;98171.88;;;24.09;100.00
74169;BME280;62523;53.336;83.690;2023-07-20T13:22:50;98171.81;;;23.96;100.00
74169;BME280;62523;53.336;83.690;2023-07-20T13:27:52;98178.59;;;23.85;100.00
74169;BME280;62523;53.336;83.690;2023-07-20T13:32:53;98180.28;;;23.86;100.00
74169;BME280;62523;53.336;83.690;2023-07-20T13:37:55;98191.72;;;23.66;100.00
74169;BME280;62523;53.336;83.690;2023-07-20T13:42:56;98195.38;;;23.59;100.00
74169;BME280;62523;53.336;83.690;2023-07-20T13:47:58;98238.59;;;23.57;100.00
74169;BME280;62523;53.336;83.690;2023-07-20T13:52:59;98281.53;;;21.75;100.00
74169;BME280;62523;53.336;83.690;2023-07-20T13:58:03;98240.56;;;20.28;100.00
74169;BME280;62523;53.336;83.690;2023-07-20T14:03:05;98243.00;;;20.46;100.00
74169;BME280;62523;53.336;83.690;2023-07-20T14:08:07;98228.81;;;19.98;100.00
74169;BME280;62523;53.336;83.690;2023-07-20T14:13:08;98245.75;;;19.82;100.00
74169;BME280;62523;53.336;83.690;2023-07-20T14:18:10;98245.38;;;20.01;100.00
74169;BME280;62523;53.336;83.690;2023-07-20T14:23:11;98263.44;;;19.83;100.00
74169;BME280;62523;53.336;83.690;2023-07-20T14:28:13;98263.28;;;19.84;100.00
74169;BME280;62523;53.336;83.690;2023-07-20T14:33:14;98279.84;;;19.80;100.00
74169;BME280;62523;53.336;83.690;2023-07-20T14:38:16;98266.09;;;19.91;100.00
74169;BME280;62523;53.336;83.690;2023-07-20T14:43:17;98252.63;;;19.76;100.00
74169;BME280;62523;53.336;83.690;2023-07-20T14:48:19;98274.00;;;19.35;100.00
74169;BME280;62523;53.336;83.690;2023-07-20T14:53:20;98294.53;;;19.35;100.00
74169;BME280;62523;53.336;83.690;2023-07-20T14:58:31;98314.75;;;18.62;100.00
74169;BME280;62523;53.336;83.690;2023-07-20T15:03:33;98313.63;;;18.73;100.00
74169;BME280;62523;53.336;83.690;2023-07-20T15:08:34;98330.69;;;18.88;100.00
74169;BME280;62523;53.336;83.690;2023-07-20T15:13:36;98346.28;;;18.58;100.00
74169;BME280;62523;53.336;83.690;2023-07-20T15:18:38;98340.72;;;18.44;100.00
74169;BME280;62523;53.336;83.690;2023-07-20T15:23:39;98351.34;;;18.35;100.00
74169;BME280;62523;53.336;83.690;2023-07-20T15:28:41;98364.34;;;18.38;100.00
74169;BME280;62523;53.336;83.690;2023-07-20T15:33:43;98386.81;;;18.70;100.00
74169;BME280;62523;53.336;83.690;2023-07-20T15:38:44;98408.63;;;19.00;100.00
74169;BME280;62523;53.336;83.690;2023-07-20T15:43:46;98409.59;;;18.91;100.00
74169;BME280;62523;53.336;83.690;2023-07-20T15:48:49;98393.88;;;18.79;100.00
74169;BME280;62523;53.336;83.690;2023-07-20T15:53:51;98379.25;;;18.57;100.00
74169;BME280;62523;53.336;83.690;2023-07-20T15:58:53;98379.16;;;18.41;100.00
74169;BME280;62523;53.336;83.690;2023-07-20T16:03:54;98367.00;;;18.38;100.00
74169;BME280;62523;53.336;83.690;2023-07-20T16:08:56;98378.28;;;18.58;100.00
74169;BME280;62523;53.336;83.690;2023-07-20T16:13:59;98358.06;;;18.13;100.00
74169;BME280;62523;53.336;83.690;2023-07-20T16:19:01;98350.41;;;18.18;100.00
74169;BME280;62523;53.336;83.690;2023-07-20T16:24:02;98369.25;;;18.25;100.00
74169;BME280;62523;53.336;83.690;2023-07-20T16:29:05;98365.81;;;18.33;100.00
74169;BME280;62523;53.336;83.690;2023-07-20T16:34:06;98355.97;;;17.99;100.00
74169;BME280;62523;53.336;83.690;2023-07-20T16:39:08;98357.03;;;18.14;100.00
74169;BME280;62523;53.336;83.690;2023-07-20T16:44:10;98352.47;;;17.80;100.00
74169;BME280;62523;53.336;83.690;2023-07-20T16:49:12;98347.31;;;17.79;100.00
74169;BME280;62523;53.336;83.690;2023-07-20T16:54:14;98337.16;;;17.56;100.00
74169;BME280;62523;53.336;83.690;2023-07-20T16:59:15;98331.47;;;17.51;100.00
74169;BME280;62523;53.336;83.690;2023-07-20T17:04:19;98313.66;;;17.78;100.00
74169;BME280;62523;53.336;83.690;2023-07-20T17:09:20;98315.34;;;17.79;100.00
74169;BME280;62523;53.336;83.690;2023-07-20T17:14:22;98297.97;;;17.93;100.00
74169;BME280;62523;53.336;83.690;2023-07-20T17:19:24;98287.78;;;17.88;100.00
74169;BME280;62523;53.336;83.690;2023-07-20T17:24:25;98291.09;;;17.82;100.00
74169;BME280;62523;53.336;83.690;2023-07-20T17:29:28;98280.78;;;17.87;100.00
74169;BME280;62523;53.336;83.690;2023-07-20T17:34:30;98267.78;;;17.84;100.00
74169;BME280;62523;53.336;83.690;2023-07-20T17:39:33;98264.69;;;18.39;100.00
74169;BME280;62523;53.336;83.690;2023-07-20T17:44:35;98275.28;;;18.23;100.00
74169;BME280;62523;53.336;83.690;2023-07-20T17:49:37;98279.88;;;18.05;100.00
74169;BME280;62523;53.336;83.690;2023-07-20T17:54:38;98290.09;;;18.17;100.00
74169;BME280;62523;53.336;83.690;2023-07-20T17:59:40;98300.28;;;18.22;100.00
74169;BME280;62523;53.336;83.690;2023-07-20T18:04:43;98302.09;;;18.21;100.00
74169;BME280;62523;53.336;83.690;2023-07-20T18:09:45;98294.66;;;18.33;100.00
74169;BME280;62523;53.336;83.690;2023-07-20T18:14:46;98281.41;;;18.58;100.00
74169;BME280;62523;53.336;83.690;2023-07-20T18:19:48;98281.59;;;18.73;100.00
74169;BME280;62523;53.336;83.690;2023-07-20T18:24:50;98288.38;;;18.51;100.00
74169;BME280;62523;53.336;83.690;2023-07-20T18:29:52;98284.13;;;18.74;100.00
74169;BME280;62523;53.336;83.690;2023-07-20T18:34:54;98272.00;;;18.88;100.00
74169;BME280;62523;53.336;83.690;2023-07-20T18:39:57;98277.97;;;18.74;100.00
74169;BME280;62523;53.336;83.690;2023-07-20T18:44:59;98292.94;;;18.58;100.00
74169;BME280;62523;53.336;83.690;2023-07-20T18:50:00;98317.91;;;17.89;100.00
74169;BME280;62523;53.336;83.690;2023-07-20T18:55:03;98329.59;;;17.70;100.00
74169;BME280;62523;53.336;83.690;2023-07-20T19:00:05;98336.00;;;17.59;100.00
74169;BME280;62523;53.336;83.690;2023-07-20T19:05:08;98337.34;;;17.81;100.00
74169;BME280;62523;53.336;83.690;2023-07-20T19:10:10;98353.25;;;17.91;100.00
74169;BME280;62523;53.336;83.690;2023-07-20T19:15:13;98357.22;;;17.51;100.00
74169;BME280;62523;53.336;83.690;2023-07-20T19:20:15;98370.97;;;17.38;100.00
74169;BME280;62523;53.336;83.690;2023-07-20T19:25:17;98384.16;;;17.48;100.00
74169;BME280;62523;53.336;83.690;2023-07-20T19:30:19;98376.50;;;17.27;100.00
74169;BME280;62523;53.336;83.690;2023-07-20T19:35:21;98399.19;;;17.03;100.00
74169;BME280;62523;53.336;83.690;2023-07-20T19:40:23;98428.69;;;17.10;100.00
74169;BME280;62523;53.336;83.690;2023-07-20T19:45:24;98439.97;;;17.04;100.00
74169;BME280;62523;53.336;83.690;2023-07-20T19:50:26;98440.25;;;17.01;100.00
74169;BME280;62523;53.336;83.690;2023-07-20T19:55:28;98439.63;;;16.79;100.00
74169;BME280;62523;53.336;83.690;2023-07-20T20:00:29;98454.31;;;16.93;100.00
74169;BME280;62523;53.336;83.690;2023-07-20T20:05:31;98462.56;;;16.90;100.00
74169;BME280;62523;53.336;83.690;2023-07-20T20:10:37;98460.34;;;16.75;100.00
74169;BME280;62523;53.336;83.690;2023-07-20T20:15:42;98462.91;;;17.05;100.00
74169;BME280;62523;53.336;83.690;2023-07-20T20:20:45;98462.03;;;16.76;100.00
74169;BME280;62523;53.336;83.690;2023-07-20T20:25:47;98458.25;;;16.89;100.00
74169;BME280;62523;53.336;83.690;2023-07-20T20:30:50;98460.53;;;16.74;100.00
74169;BME280;62523;53.336;83.690;2023-07-20T20:35:53;98459.53;;;16.75;100.00
74169;BME280;62523;53.336;83.690;2023-07-20T20:40:55;98462.50;;;16.62;100.00
74169;BME280;62523;53.336;83.690;2023-07-20T20:46:06;98467.13;;;16.60;100.00
74169;BME280;62523;53.336;83.690;2023-07-20T20:51:12;98475.59;;;16.46;100.00
74169;BME280;62523;53.336;83.690;2023-07-20T20:56:14;98467.88;;;16.43;100.00
74169;BME280;62523;53.336;83.690;2023-07-20T21:01:15;98469.34;;;16.27;100.00
74169;BME280;62523;53.336;83.690;2023-07-20T21:06:17;98472.00;;;16.27;100.00
74169;BME280;62523;53.336;83.690;2023-07-20T21:11:19;98468.81;;;16.14;100.00
74169;BME280;62523;53.336;83.690;2023-07-20T21:16:20;98467.66;;;16.16;100.00
74169;BME280;62523;53.336;83.690;2023-07-20T21:21:22;98481.66;;;16.09;100.00
74169;BME280;62523;53.336;83.690;2023-07-20T21:26:24;98476.78;;;16.04;100.00
74169;BME280;62523;53.336;83.690;2023-07-20T21:31:26;98475.06;;;16.13;100.00
74169;BME280;62523;53.336;83.690;2023-07-20T21:36:28;98475.13;;;16.03;100.00
74169;BME280;62523;53.336;83.690;2023-07-20T21:41:30;98472.03;;;16.08;100.00
74169;BME280;62523;53.336;83.690;2023-07-20T21:46:31;98470.19;;;16.08;100.00
74169;BME280;62523;53.336;83.690;2023-07-20T21:51:34;98474.97;;;16.05;100.00
74169;BME280;62523;53.336;83.690;2023-07-20T21:56:36;98474.25;;;16.22;100.00
74169;BME280;62523;53.336;83.690;2023-07-20T22:01:38;98479.16;;;16.07;100.00
74169;BME280;62523;53.336;83.690;2023-07-20T22:06:40;98470.19;;;16.08;100.00
74169;BME280;62523;53.336;83.690;2023-07-20T22:11:47;98471.31;;;16.06;100.00
74169;BME280;62523;53.336;83.690;2023-07-20T22:16:49;98472.88;;;15.99;100.00
74169;BME280;62523;53.336;83.690;2023-07-20T22:21:51;98477.50;;;15.87;100.00
74169;BME280;62523;53.336;83.690;2023-07-20T22:26:53;98486.44;;;15.86;100.00
74169;BME280;62523;53.336;83.690;2023-07-20T22:31:55;98480.97;;;15.97;100.00
74169;BME280;62523;53.336;83.690;2023-07-20T22:36:58;98475.81;;;15.86;100.00
74169;BME280;62523;53.336;83.690;2023-07-20T22:42:01;98487.41;;;15.94;100.00
74169;BME280;62523;53.336;83.690;2023-07-20T22:47:03;98484.91;;;15.83;100.00
74169;BME280;62523;53.336;83.690;2023-07-20T22:52:07;98506.16;;;15.93;100.00
74169;BME280;62523;53.336;83.690;2023-07-20T22:57:09;98495.53;;;15.83;100.00
74169;BME280;62523;53.336;83.690;2023-07-20T23:02:10;98499.00;;;15.93;100.00
74169;BME280;62523;53.336;83.690;2023-07-20T23:07:12;98497.47;;;15.91;100.00
74169;BME280;62523;53.336;83.690;2023-07-20T23:12:14;98501.38;;;15.87;100.00
74169;BME280;62523;53.336;83.690;2023-07-20T23:17:16;98500.44;;;15.88;100.00
74169;BME280;62523;53.336;83.690;2023-07-20T23:22:18;98500.44;;;15.88;100.00
74169;BME280;62523;53.336;83.690;2023-07-20T23:27:22;98499.84;;;15.84;100.00
74169;BME280;62523;53.336;83.690;2023-07-20T23:32:23;98509.22;;;15.88;100.00
74169;BME280;62523;53.336;83.690;2023-07-20T23:37:25;98512.59;;;15.90;100.00
74169;BME280;62523;53.336;83.690;2023-07-20T23:42:27;98510.47;;;15.84;100.00
74169;BME280;62523;53.336;83.690;2023-07-20T23:47:29;98514.81;;;16.24;100.00
74169;BME280;62523;53.336;83.690;2023-07-20T23:52:32;98507.97;;;16.69;100.00
74169;BME280;62523;53.336;83.690;2023-07-20T23:57:36;98489.94;;;18.09;100.00
